createdAt,value
2023-02-13T00:00:50.866Z,9.20
2023-02-13T00:03:18.616Z,7.90
2023-02-13T00:05:46.321Z,8.50
2023-02-13T00:08:14.067Z,7.90
2023-02-13T00:10:41.832Z,7.60
2023-02-13T00:13:09.585Z,6.80
2023-02-13T00:15:37.347Z,7.00
2023-02-13T00:18:06.075Z,6.10
2023-02-13T00:20:33.844Z,6.10
2023-02-13T00:23:01.607Z,7.00
2023-02-13T00:25:29.398Z,6.50
2023-02-13T00:27:57.181Z,6.20
2023-02-13T00:30:24.965Z,6.40
2023-02-13T00:32:52.717Z,6.60
2023-02-13T00:35:20.411Z,7.10
2023-02-13T00:37:48.184Z,6.50
2023-02-13T00:40:15.913Z,6.80
2023-02-13T00:42:43.623Z,6.80
2023-02-13T00:45:11.352Z,7.20
2023-02-13T00:47:39.070Z,6.40
2023-02-13T00:50:08.319Z,5.90
2023-02-13T00:52:38.048Z,5.80
2023-02-13T00:55:07.535Z,6.60
2023-02-13T00:57:37.262Z,6.70
2023-02-13T01:00:07.502Z,6.30
2023-02-13T01:02:35.670Z,5.60
2023-02-13T01:05:03.833Z,5.90
2023-02-13T01:07:31.530Z,5.80
2023-02-13T01:09:59.249Z,5.00
2023-02-13T01:12:27.992Z,6.10
2023-02-13T01:14:55.733Z,6.80
2023-02-13T01:17:23.453Z,6.70
2023-02-13T01:19:51.238Z,5.80
2023-02-13T01:22:19.115Z,5.90
2023-02-13T01:24:50.344Z,6.10
2023-02-13T01:27:18.273Z,5.80
2023-02-13T01:29:46.047Z,6.40
2023-02-13T01:32:13.845Z,6.00
2023-02-13T01:34:41.694Z,6.20
2023-02-13T01:37:09.453Z,7.00
2023-02-13T01:39:37.169Z,6.50
2023-02-13T01:42:06.207Z,6.10
2023-02-13T01:44:49.299Z,6.20
2023-02-13T01:47:22.049Z,6.00
2023-02-13T01:49:55.547Z,10.90
2023-02-13T01:52:23.343Z,9.40
2023-02-13T01:54:51.088Z,7.40
2023-02-13T01:57:22.403Z,5.70
2023-02-13T01:59:56.245Z,5.80
2023-02-13T02:02:24.940Z,5.60
2023-02-13T02:04:53.253Z,5.30
2023-02-13T02:07:25.674Z,5.40
2023-02-13T02:09:56.500Z,5.40
2023-02-13T02:12:29.047Z,5.00
2023-02-13T02:14:59.925Z,5.40
2023-02-13T02:17:31.180Z,5.80
2023-02-13T02:20:08.499Z,5.10
2023-02-13T02:23:01.670Z,5.00
2023-02-13T02:26:20.919Z,5.70
2023-02-13T02:29:20.773Z,5.00
2023-02-13T02:32:09.024Z,6.10
2023-02-13T02:34:48.194Z,5.70
2023-02-13T02:37:30.302Z,5.40
2023-02-13T02:40:10.858Z,6.10
2023-02-13T02:42:50.003Z,5.70
2023-02-13T02:45:26.058Z,4.90
2023-02-13T02:48:18.474Z,5.20
2023-02-13T02:50:52.726Z,5.40
2023-02-13T02:53:32.423Z,5.50
2023-02-13T02:56:07.121Z,4.90
2023-02-13T02:59:00.245Z,4.70
2023-02-13T03:01:48.378Z,5.30
2023-02-13T03:04:40.860Z,5.30
2023-02-13T03:07:12.520Z,5.20
2023-02-13T03:10:02.582Z,6.10
2023-02-13T03:12:56.325Z,5.70
2023-02-13T03:15:26.705Z,5.10
2023-02-13T03:18:13.175Z,5.20
2023-02-13T03:21:07.258Z,5.70
2023-02-13T03:23:50.921Z,5.10
2023-02-13T03:26:45.102Z,5.40
2023-02-13T03:29:42.820Z,5.40
2023-02-13T03:32:16.705Z,5.60
2023-02-13T03:35:10.129Z,5.80
2023-02-13T03:37:55.468Z,4.80
2023-02-13T03:40:31.048Z,5.60
2023-02-13T03:43:09.454Z,4.70
2023-02-13T03:45:53.570Z,5.20
2023-02-13T03:48:43.637Z,5.30
2023-02-13T03:51:16.181Z,4.80
2023-02-13T03:53:47.768Z,5.60
2023-02-13T03:56:36.484Z,5.50
2023-02-13T03:59:15.683Z,5.60
2023-02-13T04:01:48.594Z,6.50
2023-02-13T04:04:26.314Z,5.70
2023-02-13T04:06:58.516Z,5.80
2023-02-13T04:09:29.325Z,5.40
2023-02-13T04:12:03.180Z,5.70
2023-02-13T04:14:38.066Z,5.50
2023-02-13T04:17:08.911Z,5.90
2023-02-13T04:19:37.674Z,5.70
2023-02-13T04:22:06.290Z,5.60
2023-02-13T04:24:34.035Z,5.50
2023-02-13T04:27:02.718Z,5.20
2023-02-13T04:29:30.473Z,5.30
2023-02-13T04:31:58.258Z,5.90
2023-02-13T04:34:26.055Z,5.00
2023-02-13T04:36:53.808Z,6.20
2023-02-13T04:39:21.557Z,5.20
2023-02-13T04:41:49.291Z,6.30
2023-02-13T04:44:17.003Z,6.60
2023-02-13T04:46:44.743Z,6.50
2023-02-13T04:49:12.747Z,6.00
2023-02-13T04:51:40.765Z,8.20
2023-02-13T04:54:08.471Z,8.30
2023-02-13T04:56:36.147Z,7.70
2023-02-13T04:59:04.016Z,6.50
2023-02-13T05:01:31.766Z,9.70
2023-02-13T05:03:59.648Z,6.90
2023-02-13T05:06:27.397Z,6.30
2023-02-13T05:08:55.090Z,6.30
2023-02-13T05:11:22.823Z,5.70
2023-02-13T05:13:51.066Z,5.60
2023-02-13T05:16:18.783Z,5.80
2023-02-13T05:18:47.235Z,5.90
2023-02-13T05:21:33.069Z,6.20
2023-02-13T05:24:00.790Z,6.30
2023-02-13T05:26:28.473Z,6.90
2023-02-13T05:29:14.584Z,6.90
2023-02-13T05:31:42.457Z,5.80
2023-02-13T05:34:10.253Z,5.40
2023-02-13T05:36:37.979Z,5.50
2023-02-13T05:39:06.032Z,5.20
2023-02-13T05:41:33.898Z,5.70
2023-02-13T05:44:01.656Z,5.40
2023-02-13T05:46:29.571Z,5.60
2023-02-13T05:48:57.363Z,5.30
2023-02-13T05:51:25.084Z,5.20
2023-02-13T05:53:55.360Z,4.70
2023-02-13T05:56:23.348Z,5.70
2023-02-13T05:58:53.980Z,4.80
2023-02-13T06:01:23.245Z,5.70
2023-02-13T06:03:51.306Z,5.00
2023-02-13T06:06:19.422Z,4.80
2023-02-13T06:08:47.518Z,4.90
2023-02-13T06:11:15.236Z,5.00
2023-02-13T06:13:43.000Z,4.30
2023-02-13T06:16:11.561Z,4.70
2023-02-13T06:18:40.051Z,4.90
2023-02-13T06:21:08.533Z,4.60
2023-02-13T06:23:36.624Z,4.40
2023-02-13T06:26:06.133Z,5.30
2023-02-13T06:28:34.453Z,5.20
2023-02-13T06:31:02.901Z,5.40
2023-02-13T06:33:30.825Z,5.10
2023-02-13T06:35:58.630Z,4.70
2023-02-13T06:38:26.543Z,5.00
2023-02-13T06:40:58.930Z,5.30
2023-02-13T06:43:26.910Z,4.60
2023-02-13T06:45:54.650Z,4.50
2023-02-13T06:48:22.399Z,4.80
2023-02-13T06:50:51.520Z,4.40
2023-02-13T06:53:24.138Z,4.80
2023-02-13T06:55:52.865Z,4.60
2023-02-13T06:58:21.802Z,4.30
2023-02-13T07:00:49.850Z,4.60
2023-02-13T07:03:17.680Z,4.70
2023-02-13T07:05:45.717Z,5.00
2023-02-13T07:08:13.793Z,5.10
2023-02-13T07:10:42.598Z,5.10
2023-02-13T07:13:10.985Z,5.40
2023-02-13T07:15:38.961Z,5.70
2023-02-13T07:18:07.930Z,5.80
2023-02-13T07:20:35.891Z,4.60
2023-02-13T07:23:05.535Z,4.30
2023-02-13T07:25:34.219Z,4.50
2023-02-13T07:28:03.231Z,4.70
2023-02-13T07:30:32.225Z,4.70
2023-02-13T07:33:01.348Z,5.00
2023-02-13T07:35:29.966Z,4.30
2023-02-13T07:37:59.814Z,4.40
2023-02-13T07:40:27.769Z,5.40
2023-02-13T07:42:55.571Z,5.00
2023-02-13T07:45:24.059Z,5.20
2023-02-13T07:47:54.402Z,5.60
2023-02-13T07:50:22.294Z,5.20
2023-02-13T07:52:55.118Z,5.60
2023-02-13T07:55:23.246Z,5.20
2023-02-13T07:57:51.853Z,5.10
2023-02-13T08:00:23.398Z,5.70
2023-02-13T08:02:51.176Z,5.30
2023-02-13T08:05:19.059Z,5.20
2023-02-13T08:07:46.845Z,5.20
2023-02-13T08:10:34.614Z,6.10
2023-02-13T08:13:02.972Z,5.90
2023-02-13T08:15:30.668Z,7.30
2023-02-13T08:17:58.554Z,6.70
2023-02-13T08:20:26.276Z,7.90
2023-02-13T08:22:53.973Z,7.40
2023-02-13T08:25:21.674Z,8.20
2023-02-13T08:27:49.405Z,7.90
2023-02-13T08:30:17.576Z,7.10
2023-02-13T08:32:53.806Z,7.70
2023-02-13T08:35:26.131Z,8.50
2023-02-13T08:37:53.898Z,7.10
2023-02-13T08:40:24.433Z,8.20
2023-02-13T08:42:58.808Z,7.10
2023-02-13T08:45:26.609Z,9.50
2023-02-13T08:47:57.258Z,11.30
2023-02-13T08:50:26.121Z,11.20
2023-02-13T08:52:54.208Z,9.60
2023-02-13T08:55:22.185Z,10.00
2023-02-13T08:57:49.873Z,10.00
2023-02-13T09:00:18.205Z,7.00
2023-02-13T09:02:45.983Z,8.20
2023-02-13T09:05:14.037Z,7.90
2023-02-13T09:07:42.024Z,8.30
2023-02-13T09:10:11.465Z,7.60
2023-02-13T09:12:39.249Z,7.90
2023-02-13T09:15:08.564Z,8.40
2023-02-13T09:17:36.300Z,7.60
2023-02-13T09:20:05.671Z,6.80
2023-02-13T09:22:33.385Z,5.90
2023-02-13T09:25:03.563Z,4.00
2023-02-13T09:27:32.041Z,3.30
2023-02-13T09:29:59.968Z,2.40
2023-02-13T09:32:28.563Z,2.80
2023-02-13T09:34:56.258Z,2.20
2023-02-13T09:37:23.924Z,2.20
2023-02-13T09:39:51.648Z,2.40
2023-02-13T09:42:24.356Z,1.70
2023-02-13T09:44:54.289Z,1.60
2023-02-13T09:47:30.605Z,2.50
2023-02-13T09:50:04.428Z,2.30
2023-02-13T09:52:36.049Z,1.90
2023-02-13T09:55:13.941Z,1.70
2023-02-13T09:57:46.823Z,2.10
2023-02-13T10:00:19.915Z,1.60
2023-02-13T10:03:21.442Z,2.10
2023-02-13T10:06:00.161Z,2.00
2023-02-13T10:08:41.188Z,2.00
2023-02-13T10:11:27.429Z,2.00
2023-02-13T10:14:04.678Z,1.80
2023-02-13T10:16:37.848Z,1.90
2023-02-13T10:19:15.397Z,2.30
2023-02-13T10:21:52.177Z,2.00
2023-02-13T10:24:30.804Z,2.00
2023-02-13T10:27:02.436Z,1.80
2023-02-13T10:29:57.303Z,2.20
2023-02-13T10:32:34.479Z,1.90
2023-02-13T10:35:03.888Z,2.10
2023-02-13T10:37:31.873Z,1.70
2023-02-13T10:40:01.216Z,1.60
2023-02-13T10:42:39.844Z,1.50
2023-02-13T10:45:26.728Z,1.90
2023-02-13T10:48:09.919Z,1.80
2023-02-13T10:50:46.893Z,2.00
2023-02-13T10:53:19.641Z,2.00
2023-02-13T10:56:17.003Z,1.80
2023-02-13T11:01:22.881Z,2.30
2023-02-13T11:04:04.238Z,2.50
2023-02-13T11:06:35.143Z,2.00
2023-02-13T11:09:05.816Z,2.60
2023-02-13T11:11:35.471Z,2.00
2023-02-13T11:14:12.802Z,3.00
2023-02-13T11:16:57.465Z,2.60
2023-02-13T11:19:33.371Z,2.10
2023-02-13T11:22:04.992Z,2.30
2023-02-13T11:24:33.621Z,2.00
2023-02-13T11:27:08.143Z,2.00
2023-02-13T11:29:39.804Z,2.90
2023-02-13T11:32:19.808Z,2.00
2023-02-13T11:34:50.027Z,2.60
2023-02-13T11:37:22.488Z,2.20
2023-02-13T11:39:52.831Z,2.50
2023-02-13T11:42:25.148Z,2.90
2023-02-13T11:44:55.678Z,2.40
2023-02-13T11:47:46.772Z,2.30
2023-02-13T11:53:00.279Z,2.30
2023-02-13T11:55:31.798Z,2.50
2023-02-13T11:58:02.497Z,2.60
2023-02-13T12:00:39.149Z,2.40
2023-02-13T12:03:28.757Z,2.10
2023-02-13T12:06:06.428Z,2.60
2023-02-13T12:08:36.498Z,2.20
2023-02-13T12:11:21.115Z,1.80
2023-02-13T12:13:50.776Z,2.20
2023-02-13T12:16:35.597Z,2.50
2023-02-13T12:19:07.288Z,2.60
2023-02-13T12:21:48.579Z,2.70
2023-02-13T12:24:33.626Z,3.20
2023-02-13T12:27:15.888Z,2.60
2023-02-13T12:30:00.319Z,2.30
2023-02-13T12:32:37.794Z,2.30
2023-02-13T12:35:35.393Z,2.20
2023-02-13T12:38:11.642Z,2.70
2023-02-13T12:41:05.900Z,2.50
2023-02-13T12:44:02.710Z,2.80
2023-02-13T12:46:39.779Z,3.10
2023-02-13T12:49:22.257Z,2.90
2023-02-13T12:52:03.513Z,2.60
2023-02-13T12:54:54.528Z,2.60
2023-02-13T12:57:41.491Z,3.30
2023-02-13T13:00:29.499Z,2.60
2023-02-13T13:03:17.673Z,2.20
2023-02-13T13:06:19.051Z,2.60
2023-02-13T13:09:09.814Z,2.70
2023-02-13T13:11:55.473Z,2.40
2023-02-13T13:14:31.845Z,1.60
2023-02-13T13:17:08.041Z,1.80
2023-02-13T13:19:44.437Z,1.60
2023-02-13T13:22:17.875Z,1.80
2023-02-13T13:25:00.508Z,1.60
2023-02-13T13:27:31.689Z,1.70
2023-02-13T13:30:04.610Z,1.50
2023-02-13T13:32:34.933Z,1.70
2023-02-13T13:35:03.153Z,1.60
2023-02-13T13:37:35.356Z,1.70
2023-02-13T13:42:43.623Z,2.00
2023-02-13T13:45:24.902Z,1.60
2023-02-13T13:48:11.731Z,2.10
2023-02-13T13:50:42.979Z,2.00
2023-02-13T13:53:14.095Z,2.30
2023-02-13T13:56:04.393Z,2.30
2023-02-13T13:58:36.231Z,1.80
2023-02-13T14:01:23.653Z,2.40
2023-02-13T14:03:53.280Z,2.10
2023-02-13T14:06:23.694Z,2.30
2023-02-13T14:09:03.310Z,1.80
2023-02-13T14:11:37.233Z,2.40
2023-02-13T14:14:51.775Z,2.00
2023-02-13T14:17:53.810Z,2.20
2023-02-13T14:20:35.424Z,2.30
2023-02-13T14:23:27.627Z,1.90
2023-02-13T14:26:18.334Z,2.50
2023-02-13T14:28:59.239Z,2.60
2023-02-13T14:31:30.924Z,3.70
2023-02-13T14:34:01.377Z,2.70
2023-02-13T14:36:33.058Z,2.60
2023-02-13T14:39:03.247Z,2.30
2023-02-13T14:41:56.335Z,2.80
2023-02-13T14:44:31.191Z,3.20
2023-02-13T14:47:01.578Z,2.70
2023-02-13T14:49:32.803Z,2.90
2023-02-13T14:52:04.178Z,3.80
2023-02-13T14:54:37.105Z,4.30
2023-02-13T14:57:15.273Z,2.70
2023-02-13T14:59:47.436Z,3.10
2023-02-13T15:02:22.116Z,2.70
2023-02-13T15:04:55.526Z,3.10
2023-02-13T15:07:26.733Z,3.50
2023-02-13T15:09:59.481Z,3.80
2023-02-13T15:12:30.344Z,3.70
2023-02-13T15:15:00.711Z,3.80
2023-02-13T15:17:32.025Z,3.40
2023-02-13T15:20:06.579Z,3.20
2023-02-13T15:22:38.009Z,3.80
2023-02-13T15:25:07.876Z,3.70
2023-02-13T15:27:41.234Z,4.10
2023-02-13T15:30:21.319Z,4.00
2023-02-13T15:32:55.433Z,4.10
2023-02-13T15:35:25.801Z,3.30
2023-02-13T15:37:54.544Z,3.60
2023-02-13T15:40:26.021Z,3.70
2023-02-13T15:42:54.495Z,4.10
2023-02-13T15:45:24.598Z,4.10
2023-02-13T15:47:54.792Z,5.00
2023-02-13T15:50:28.994Z,4.00
2023-02-13T15:52:57.669Z,3.60
2023-02-13T15:55:27.714Z,3.70
2023-02-13T15:57:58.957Z,3.50
2023-02-13T16:00:30.354Z,3.60
2023-02-13T16:03:01.328Z,4.40
2023-02-13T16:05:41.173Z,4.10
2023-02-13T16:08:29.294Z,3.80
2023-02-13T16:11:18.710Z,3.10
2023-02-13T16:13:58.542Z,4.10
2023-02-13T16:16:28.398Z,5.00
2023-02-13T16:18:57.448Z,4.30
2023-02-13T16:21:27.229Z,6.50
2023-02-13T16:24:00.196Z,7.00
2023-02-13T16:26:28.192Z,7.00
2023-02-13T16:28:56.701Z,7.20
2023-02-13T16:31:25.265Z,7.90
2023-02-13T16:33:53.033Z,7.90
2023-02-13T16:36:28.936Z,8.10
2023-02-13T16:38:57.095Z,7.80
2023-02-13T16:41:32.934Z,8.10
2023-02-13T16:44:01.589Z,8.10
2023-02-13T16:46:35.387Z,9.20
2023-02-13T16:49:19.349Z,8.40
2023-02-13T16:51:50.630Z,9.40
2023-02-13T16:54:30.382Z,9.80
2023-02-13T16:57:00.787Z,10.90
2023-02-13T16:59:40.723Z,9.00
2023-02-13T17:02:18.151Z,8.80
2023-02-13T17:04:47.722Z,8.60
2023-02-13T17:07:21.490Z,8.40
2023-02-13T17:09:58.432Z,7.40
2023-02-13T17:12:27.420Z,7.30
2023-02-13T17:14:56.169Z,7.60
2023-02-13T17:17:23.973Z,7.90
2023-02-13T17:19:51.706Z,8.30
2023-02-13T17:22:37.748Z,8.60
2023-02-13T17:25:12.573Z,8.90
2023-02-13T17:27:42.311Z,7.50
2023-02-13T17:30:14.794Z,8.00
2023-02-13T17:32:44.413Z,8.10
2023-02-13T17:35:15.151Z,8.20
2023-02-13T17:37:44.694Z,8.00
2023-02-13T17:40:17.997Z,8.00
2023-02-13T17:42:47.729Z,8.60
2023-02-13T17:45:17.567Z,8.20
2023-02-13T17:47:45.684Z,7.80
2023-02-13T17:50:16.842Z,7.60
2023-02-13T17:52:46.022Z,7.70
2023-02-13T17:55:20.413Z,7.10
2023-02-13T17:57:48.762Z,7.60
2023-02-13T18:00:19.387Z,7.50
2023-02-13T18:02:48.028Z,7.50
2023-02-13T18:05:16.717Z,7.20
2023-02-13T18:07:45.540Z,7.30
2023-02-13T18:10:16.215Z,7.80
2023-02-13T18:12:44.962Z,7.70
2023-02-13T18:15:14.044Z,7.30
2023-02-13T18:17:42.286Z,7.10
2023-02-13T18:20:14.073Z,7.50
2023-02-13T18:22:41.822Z,8.00
2023-02-13T18:25:10.508Z,7.30
2023-02-13T18:27:38.455Z,7.90
2023-02-13T18:30:09.602Z,7.30
2023-02-13T18:32:37.429Z,7.80
2023-02-13T18:35:07.006Z,7.00
2023-02-13T18:37:35.359Z,6.50
2023-02-13T18:40:03.373Z,6.00
2023-02-13T18:42:31.126Z,5.60
2023-02-13T18:44:59.009Z,5.60
2023-02-13T18:47:26.844Z,6.10
2023-02-13T18:49:54.633Z,5.30
2023-02-13T18:52:22.396Z,6.10
2023-02-13T18:54:50.909Z,6.20
2023-02-13T18:57:18.662Z,5.90
2023-02-13T18:59:46.510Z,6.00
2023-02-13T19:02:15.862Z,6.10
2023-02-13T19:04:43.718Z,6.70
2023-02-13T19:07:11.832Z,6.90
2023-02-13T19:09:39.824Z,6.40
2023-02-13T19:12:08.523Z,7.30
2023-02-13T19:14:37.498Z,7.10
2023-02-13T19:17:07.552Z,7.10
2023-02-13T19:19:35.436Z,6.60
2023-02-13T19:22:03.929Z,6.50
2023-02-13T19:24:32.318Z,6.30
2023-02-13T19:27:00.150Z,6.80
2023-02-13T19:29:28.076Z,7.20
2023-02-13T19:31:56.679Z,7.00
2023-02-13T19:34:24.430Z,7.60
2023-02-13T19:36:52.179Z,8.60
2023-02-13T19:39:19.898Z,6.50
2023-02-13T19:41:47.603Z,7.80
2023-02-13T19:44:15.490Z,6.40
2023-02-13T19:46:43.317Z,6.40
2023-02-13T19:49:11.152Z,6.90
2023-02-13T19:51:41.374Z,6.70
2023-02-13T19:54:10.762Z,7.10
2023-02-13T19:56:39.504Z,6.70
2023-02-13T19:59:11.540Z,6.40
2023-02-13T20:01:42.033Z,6.60
2023-02-13T20:04:10.649Z,5.80
2023-02-13T20:06:38.521Z,6.30
2023-02-13T20:09:09.077Z,5.70
2023-02-13T20:11:37.041Z,6.30
2023-02-13T20:14:05.117Z,6.30
2023-02-13T20:16:34.982Z,6.00
2023-02-13T20:19:05.746Z,5.70
2023-02-13T20:21:35.315Z,6.00
2023-02-13T20:24:04.549Z,6.00
2023-02-13T20:26:32.599Z,6.60
2023-02-13T20:29:01.042Z,6.40
2023-02-13T20:31:29.679Z,6.50
2023-02-13T20:33:58.310Z,6.10
2023-02-13T20:36:28.449Z,6.70
2023-02-13T20:38:58.833Z,5.60
2023-02-13T20:41:28.403Z,6.50
2023-02-13T20:43:59.111Z,6.10
2023-02-13T20:46:28.708Z,5.90
2023-02-13T20:48:56.667Z,6.50
2023-02-13T20:51:24.618Z,6.90
2023-02-13T20:53:52.548Z,8.10
2023-02-13T20:56:22.049Z,6.90
2023-02-13T20:58:51.543Z,7.20
2023-02-13T21:01:21.845Z,7.70
2023-02-13T21:03:53.918Z,8.20
2023-02-13T21:06:22.460Z,8.50
2023-02-13T21:08:50.390Z,7.30
2023-02-13T21:11:19.846Z,8.40
2023-02-13T21:13:48.248Z,7.90
2023-02-13T21:16:18.196Z,8.20
2023-02-13T21:18:48.220Z,9.10
2023-02-13T21:21:17.173Z,8.20
2023-02-13T21:23:45.261Z,8.00
2023-02-13T21:26:15.804Z,6.80
2023-02-13T21:28:47.230Z,7.00
2023-02-13T21:31:18.067Z,7.40
2023-02-13T21:33:46.152Z,7.90
2023-02-13T21:36:14.070Z,7.50
2023-02-13T21:38:42.122Z,7.70
2023-02-13T21:41:12.938Z,7.60
2023-02-13T21:43:45.737Z,7.60
2023-02-13T21:46:15.456Z,7.30
2023-02-13T21:48:43.788Z,8.20
2023-02-13T21:51:13.684Z,7.70
2023-02-13T21:53:42.181Z,8.80
2023-02-13T21:56:13.258Z,8.10
2023-02-13T21:58:42.531Z,8.40
2023-02-13T22:01:24.004Z,8.20
2023-02-13T22:03:54.824Z,8.00
2023-02-13T22:06:22.610Z,8.80
2023-02-13T22:08:57.008Z,9.00
2023-02-13T22:11:25.499Z,6.90
2023-02-13T22:13:56.161Z,7.30
2023-02-13T22:16:24.713Z,19.50
2023-02-13T22:18:53.415Z,8.30
2023-02-13T22:21:22.835Z,8.50
2023-02-13T22:23:52.022Z,8.20
2023-02-13T22:26:21.599Z,8.30
2023-02-13T22:28:50.328Z,8.50
2023-02-13T22:31:18.689Z,7.40
2023-02-13T22:33:52.428Z,8.10
2023-02-13T22:36:23.060Z,8.20
2023-02-13T22:38:51.522Z,8.80
2023-02-13T22:41:21.408Z,8.80
2023-02-13T22:43:49.520Z,9.00
2023-02-13T22:46:19.422Z,7.60
2023-02-13T22:48:48.096Z,9.40
2023-02-13T22:51:17.568Z,8.90
2023-02-13T22:53:45.755Z,8.50
2023-02-13T22:56:13.647Z,8.50
2023-02-13T22:58:41.350Z,8.60
2023-02-13T23:01:13.996Z,7.70
2023-02-13T23:03:42.574Z,8.80
2023-02-13T23:06:12.079Z,7.70
2023-02-13T23:08:40.522Z,8.00
2023-02-13T23:11:28.474Z,8.00
2023-02-13T23:13:56.706Z,7.70
2023-02-13T23:16:24.885Z,6.70
2023-02-13T23:18:54.700Z,8.00
2023-02-13T23:21:23.134Z,7.80
2023-02-13T23:23:51.328Z,8.40
2023-02-13T23:26:19.110Z,8.30
2023-02-13T23:28:46.829Z,8.40
2023-02-13T23:31:14.656Z,8.40
2023-02-13T23:33:42.539Z,8.30
2023-02-13T23:36:10.477Z,8.90
2023-02-13T23:38:38.245Z,9.00
2023-02-13T23:41:09.917Z,7.90
2023-02-13T23:43:38.046Z,8.90
2023-02-13T23:46:06.876Z,8.60
2023-02-13T23:48:34.970Z,7.90
2023-02-13T23:51:02.809Z,8.10
2023-02-13T23:53:30.560Z,8.00
2023-02-13T23:55:58.253Z,8.40
2023-02-13T23:58:25.999Z,7.80
